Schawana, Washington
Current Conditions -  °F | °C
As of 11:56 PM on Wednesday 22 Oct 2014 (Local Time) from K1YT Reporting Station
Clear Clear  
Wind Chill: 56°   Ceiling: Unl
Heat Index: 56°   Visibility: 10mi
Dew Point: 48°   Wind: 21mph
Humidity: 74%   Direction: 220°SW
Pressure: 29.71"   Gusts: 30mph
Location:  46.8623°N, 119.858°W
Report Text: K1YT 230656Z AUTO 22018G26KT 10SM CLR 13/09 A2971 RMK AO2 PK WND 20031/31 SLPNO T01330087
Loading
Personal Weather Stations






























Interactive Weather Map
Tropical Storm Tracking
New forecast layout! Learn more

10-Day Weather Forecast

Advertisements
Track Severe Weather on mobile